Terminal Aerodrome Forecast
Issued by NWS

Home | Current Version | Previous Version | Text Only | Print | Product List | Glossary On
Versions: 1 2 3 4 5 6 7 8 9 10 11 12 13 14 15 16 17 18
655
FTUS42 TJSJ 300944 AAA
TAFJSJ
TAF AMD
TJSJ 300944Z 3010/3106 VRB06KT P6SM VCSH FEW025 SCT040 OVC060
      TEMPO 3010/3011 VRB06KT SHRA SCT020 SCT050
     FM301300 08012KT P6SM SCT030 SCT050
     FM302300 11005KT P6SM SCT025=

USA.gov is the U.S. government's official web portal to all federal, state and local government web resources and services.